sensor_id;sensor_type;location;lat;lon;timestamp;pressure;altitude;pressure_sealevel;temperature;humidity
59767;BME280;46248;58.364;25.582;2023-04-05T00:03:22;101351.59;;;-1.57;100.00
59767;BME280;46248;58.364;25.582;2023-04-05T00:06:46;101356.72;;;-1.57;100.00
59767;BME280;46248;58.364;25.582;2023-04-05T00:10:10;101326.63;;;-1.67;100.00
59767;BME280;46248;58.364;25.582;2023-04-05T00:13:31;101354.97;;;-1.58;100.00
59767;BME280;46248;58.364;25.582;2023-04-05T00:16:54;101355.84;;;-1.57;100.00
59767;BME280;46248;58.364;25.582;2023-04-05T00:20:17;101361.00;;;-1.56;100.00
59767;BME280;46248;58.364;25.582;2023-04-05T00:23:39;101367.00;;;-1.55;100.00
59767;BME280;46248;58.364;25.582;2023-04-05T00:27:00;101369.56;;;-1.55;100.00
59767;BME280;46248;58.364;25.582;2023-04-05T00:30:22;101366.09;;;-1.59;100.00
59767;BME280;46248;58.364;25.582;2023-04-05T00:33:44;101370.47;;;-1.53;100.00
59767;BME280;46248;58.364;25.582;2023-04-05T00:37:08;101357.59;;;-1.55;100.00
59767;BME280;46248;58.364;25.582;2023-04-05T00:40:30;101356.72;;;-1.55;100.00
59767;BME280;46248;58.364;25.582;2023-04-05T00:43:52;101333.56;;;-1.60;100.00
59767;BME280;46248;58.364;25.582;2023-04-05T00:47:14;101345.59;;;-1.54;100.00
59767;BME280;46248;58.364;25.582;2023-04-05T00:50:36;101344.75;;;-1.56;100.00
59767;BME280;46248;58.364;25.582;2023-04-05T00:54:00;101331.84;;;-1.63;100.00
59767;BME280;46248;58.364;25.582;2023-04-05T00:57:24;101334.41;;;-1.63;100.00
59767;BME280;46248;58.364;25.582;2023-04-05T01:00:52;101303.50;;;-1.67;100.00
59767;BME280;46248;58.364;25.582;2023-04-05T01:04:19;101317.28;;;-1.61;100.00
59767;BME280;46248;58.364;25.582;2023-04-05T01:07:48;101309.66;;;-1.56;100.00
59767;BME280;46248;58.364;25.582;2023-04-05T01:11:14;101313.03;;;-1.60;100.00
59767;BME280;46248;58.364;25.582;2023-04-05T01:14:44;101325.91;;;-1.57;100.00
59767;BME280;46248;58.364;25.582;2023-04-05T01:18:06;101331.84;;;-1.61;100.00
59767;BME280;46248;58.364;25.582;2023-04-05T01:21:53;101332.63;;;-1.68;100.00
59767;BME280;46248;58.364;25.582;2023-04-05T01:26:18;101342.16;;;-1.55;100.00
59767;BME280;46248;58.364;25.582;2023-04-05T01:29:55;101328.47;;;-1.55;100.00
59767;BME280;46248;58.364;25.582;2023-04-05T01:33:27;101335.31;;;-1.56;100.00
59767;BME280;46248;58.364;25.582;2023-04-05T01:36:57;101345.59;;;-1.56;100.00
59767;BME280;46248;58.364;25.582;2023-04-05T01:40:22;101354.22;;;-1.51;100.00
59767;BME280;46248;58.364;25.582;2023-04-05T01:43:44;101364.53;;;-1.48;100.00
59767;BME280;46248;58.364;25.582;2023-04-05T01:47:07;101366.25;;;-1.47;100.00
59767;BME280;46248;58.364;25.582;2023-04-05T01:50:29;101356.84;;;-1.48;100.00
59767;BME280;46248;58.364;25.582;2023-04-05T01:53:51;101338.81;;;-1.49;100.00
59767;BME280;46248;58.364;25.582;2023-04-05T01:57:16;101344.00;;;-1.46;100.00
59767;BME280;46248;58.364;25.582;2023-04-05T02:00:37;101327.63;;;-1.54;100.00
59767;BME280;46248;58.364;25.582;2023-04-05T02:04:01;101334.56;;;-1.47;100.00
59767;BME280;46248;58.364;25.582;2023-04-05T02:07:23;101333.75;;;-1.45;100.00
59767;BME280;46248;58.364;25.582;2023-04-05T02:10:46;101332.88;;;-1.44;100.00
59767;BME280;46248;58.364;25.582;2023-04-05T02:14:08;101310.63;;;-1.45;100.00
59767;BME280;46248;58.364;25.582;2023-04-05T02:17:30;101289.97;;;-1.52;100.00
59767;BME280;46248;58.364;25.582;2023-04-05T02:21:04;101257.25;;;-1.72;100.00
59767;BME280;46248;58.364;25.582;2023-04-05T02:24:27;101308.00;;;-1.51;100.00
59767;BME280;46248;58.364;25.582;2023-04-05T02:27:49;101310.56;;;-1.49;100.00
59767;BME280;46248;58.364;25.582;2023-04-05T02:31:11;101317.38;;;-1.51;100.00
59767;BME280;46248;58.364;25.582;2023-04-05T02:34:33;101330.28;;;-1.47;100.00
59767;BME280;46248;58.364;25.582;2023-04-05T02:37:57;101326.00;;;-1.48;100.00
59767;BME280;46248;58.364;25.582;2023-04-05T02:41:21;101330.25;;;-1.50;100.00
59767;BME280;46248;58.364;25.582;2023-04-05T02:44:43;101330.28;;;-1.48;100.00
59767;BME280;46248;58.364;25.582;2023-04-05T02:48:07;101327.75;;;-1.44;100.00
59767;BME280;46248;58.364;25.582;2023-04-05T02:51:29;101321.75;;;-1.44;100.00
59767;BME280;46248;58.364;25.582;2023-04-05T02:54:55;101330.31;;;-1.45;100.00
59767;BME280;46248;58.364;25.582;2023-04-05T02:58:17;101314.81;;;-1.53;100.00
59767;BME280;46248;58.364;25.582;2023-04-05T03:01:39;101315.75;;;-1.45;100.00
59767;BME280;46248;58.364;25.582;2023-04-05T03:05:05;101323.47;;;-1.45;100.00
59767;BME280;46248;58.364;25.582;2023-04-05T03:08:27;101286.41;;;-1.67;100.00
59767;BME280;46248;58.364;25.582;2023-04-05T03:11:51;101311.41;;;-1.49;100.00
59767;BME280;46248;58.364;25.582;2023-04-05T03:15:13;101322.59;;;-1.47;100.00
59767;BME280;46248;58.364;25.582;2023-04-05T03:18:34;101318.28;;;-1.49;100.00
59767;BME280;46248;58.364;25.582;2023-04-05T03:21:56;101324.28;;;-1.47;100.00
59767;BME280;46248;58.364;25.582;2023-04-05T03:25:18;101319.19;;;-1.44;100.00
59767;BME280;46248;58.364;25.582;2023-04-05T03:28:42;101321.72;;;-1.46;100.00
59767;BME280;46248;58.364;25.582;2023-04-05T03:32:04;101318.28;;;-1.51;100.00
59767;BME280;46248;58.364;25.582;2023-04-05T03:35:31;101319.16;;;-1.46;100.00
59767;BME280;46248;58.364;25.582;2023-04-05T03:38:52;101326.03;;;-1.43;100.00
59767;BME280;46248;58.364;25.582;2023-04-05T03:42:15;101320.03;;;-1.44;100.00
59767;BME280;46248;58.364;25.582;2023-04-05T03:45:39;101313.19;;;-1.43;100.00
59767;BME280;46248;58.364;25.582;2023-04-05T03:49:01;101316.63;;;-1.43;100.00
59767;BME280;46248;58.364;25.582;2023-04-05T03:52:23;101307.19;;;-1.44;100.00
59767;BME280;46248;58.364;25.582;2023-04-05T03:55:46;101320.91;;;-1.43;100.00
59767;BME280;46248;58.364;25.582;2023-04-05T03:59:10;101310.63;;;-1.43;100.00
59767;BME280;46248;58.364;25.582;2023-04-05T04:02:34;101317.53;;;-1.39;100.00
59767;BME280;46248;58.364;25.582;2023-04-05T04:05:56;101316.66;;;-1.40;100.00
59767;BME280;46248;58.364;25.582;2023-04-05T04:09:18;101317.53;;;-1.39;100.00
59767;BME280;46248;58.364;25.582;2023-04-05T04:12:42;101324.38;;;-1.40;100.00
59767;BME280;46248;58.364;25.582;2023-04-05T04:16:04;101319.28;;;-1.35;100.00
59767;BME280;46248;58.364;25.582;2023-04-05T04:19:28;101317.59;;;-1.31;100.00
59767;BME280;46248;58.364;25.582;2023-04-05T04:22:50;101302.09;;;-1.41;100.00
59767;BME280;46248;58.364;25.582;2023-04-05T04:26:13;101315.13;;;-1.24;100.00
59767;BME280;46248;58.364;25.582;2023-04-05T04:29:36;101307.38;;;-1.25;100.00
59767;BME280;46248;58.364;25.582;2023-04-05T04:33:05;101310.84;;;-1.22;100.00
59767;BME280;46248;58.364;25.582;2023-04-05T04:36:29;101329.72;;;-1.18;100.00
59767;BME280;46248;58.364;25.582;2023-04-05T04:39:58;101326.31;;;-1.16;100.00
59767;BME280;46248;58.364;25.582;2023-04-05T04:43:26;101322.03;;;-1.15;100.00
59767;BME280;46248;58.364;25.582;2023-04-05T04:46:48;101331.53;;;-1.09;100.00
59767;BME280;46248;58.364;25.582;2023-04-05T04:50:15;101321.28;;;-1.08;100.00
59767;BME280;46248;58.364;25.582;2023-04-05T04:53:40;101325.63;;;-1.02;100.00
59767;BME280;46248;58.364;25.582;2023-04-05T04:57:02;101332.53;;;-0.97;100.00
59767;BME280;46248;58.364;25.582;2023-04-05T05:00:24;101323.03;;;-1.01;100.00
59767;BME280;46248;58.364;25.582;2023-04-05T05:03:46;101331.72;;;-0.89;100.00
59767;BME280;46248;58.364;25.582;2023-04-05T05:07:08;101331.75;;;-0.85;100.00
59767;BME280;46248;58.364;25.582;2023-04-05T05:10:32;101332.69;;;-0.78;100.00
59767;BME280;46248;58.364;25.582;2023-04-05T05:13:54;101326.66;;;-0.80;100.00
59767;BME280;46248;58.364;25.582;2023-04-05T05:17:16;101336.13;;;-0.73;100.00
59767;BME280;46248;58.364;25.582;2023-04-05T05:20:38;101337.91;;;-0.69;100.00
59767;BME280;46248;58.364;25.582;2023-04-05T05:24:01;101339.63;;;-0.66;100.00
59767;BME280;46248;58.364;25.582;2023-04-05T05:27:25;101343.97;;;-0.59;100.00
59767;BME280;46248;58.364;25.582;2023-04-05T05:30:47;101339.72;;;-0.54;100.00
59767;BME280;46248;58.364;25.582;2023-04-05T05:34:09;101345.78;;;-0.48;100.00
59767;BME280;46248;58.364;25.582;2023-04-05T05:37:32;101342.34;;;-0.43;100.00
59767;BME280;46248;58.364;25.582;2023-04-05T05:40:54;101349.28;;;-0.36;100.00
59767;BME280;46248;58.364;25.582;2023-04-05T05:44:19;101340.72;;;-0.31;100.00
59767;BME280;46248;58.364;25.582;2023-04-05T05:47:40;101354.56;;;-0.18;100.00
59767;BME280;46248;58.364;25.582;2023-04-05T05:51:03;101351.97;;;-0.16;100.00
59767;BME280;46248;58.364;25.582;2023-04-05T05:54:29;101352.88;;;-0.11;100.00
59767;BME280;46248;58.364;25.582;2023-04-05T05:57:51;101355.44;;;-0.10;100.00
59767;BME280;46248;58.364;25.582;2023-04-05T06:01:14;101365.78;;;-0.01;100.00
59767;BME280;46248;58.364;25.582;2023-04-05T06:04:36;101361.53;;;0.05;100.00
59767;BME280;46248;58.364;25.582;2023-04-05T06:07:58;101351.22;;;0.00;100.00
59767;BME280;46248;58.364;25.582;2023-04-05T06:11:20;101362.44;;;0.13;100.00
59767;BME280;46248;58.364;25.582;2023-04-05T06:14:44;101363.31;;;0.18;100.00
59767;BME280;46248;58.364;25.582;2023-04-05T06:18:07;101374.47;;;0.17;100.00
59767;BME280;46248;58.364;25.582;2023-04-05T06:21:29;101368.44;;;0.15;100.00
59767;BME280;46248;58.364;25.582;2023-04-05T06:24:52;101365.03;;;0.14;100.00
59767;BME280;46248;58.364;25.582;2023-04-05T06:28:13;101357.31;;;0.16;100.00
59767;BME280;46248;58.364;25.582;2023-04-05T06:31:36;101370.22;;;0.27;100.00
59767;BME280;46248;58.364;25.582;2023-04-05T06:35:00;101372.84;;;0.33;100.00
59767;BME280;46248;58.364;25.582;2023-04-05T06:38:23;101375.41;;;0.36;100.00
59767;BME280;46248;58.364;25.582;2023-04-05T06:41:45;101366.84;;;0.31;100.00
59767;BME280;46248;58.364;25.582;2023-04-05T06:45:07;101372.00;;;0.41;100.00
59767;BME280;46248;58.364;25.582;2023-04-05T06:48:32;101375.50;;;0.53;100.00
59767;BME280;46248;58.364;25.582;2023-04-05T06:51:56;101374.69;;;0.66;100.00
59767;BME280;46248;58.364;25.582;2023-04-05T06:55:18;101379.00;;;0.78;99.60
59767;BME280;46248;58.364;25.582;2023-04-05T06:58:40;101378.16;;;0.77;99.30
59767;BME280;46248;58.364;25.582;2023-04-05T07:02:01;101382.47;;;0.83;99.65
59767;BME280;46248;58.364;25.582;2023-04-05T07:05:23;101377.31;;;0.84;98.94
59767;BME280;46248;58.364;25.582;2023-04-05T07:08:47;101394.53;;;0.96;98.51
59767;BME280;46248;58.364;25.582;2023-04-05T07:12:08;101391.97;;;1.01;98.36
59767;BME280;46248;58.364;25.582;2023-04-05T07:15:30;101404.88;;;1.01;97.99
59767;BME280;46248;58.364;25.582;2023-04-05T07:18:54;101387.63;;;0.90;98.09
59767;BME280;46248;58.364;25.582;2023-04-05T07:22:17;101402.31;;;1.13;98.51
59767;BME280;46248;58.364;25.582;2023-04-05T07:25:40;101402.31;;;1.22;97.58
59767;BME280;46248;58.364;25.582;2023-04-05T07:29:02;101401.47;;;1.22;97.67
59767;BME280;46248;58.364;25.582;2023-04-05T07:32:24;101404.03;;;1.29;98.04
59767;BME280;46248;58.364;25.582;2023-04-05T07:35:50;101407.47;;;1.39;97.07
59767;BME280;46248;58.364;25.582;2023-04-05T07:39:12;101409.22;;;1.54;96.73
59767;BME280;46248;58.364;25.582;2023-04-05T07:42:36;101408.34;;;1.69;96.35
59767;BME280;46248;58.364;25.582;2023-04-05T07:46:02;101378.22;;;1.60;95.86
59767;BME280;46248;58.364;25.582;2023-04-05T07:49:24;101419.53;;;1.84;95.47
59767;BME280;46248;58.364;25.582;2023-04-05T07:52:47;101416.09;;;1.86;94.07
59767;BME280;46248;58.364;25.582;2023-04-05T07:56:09;101419.53;;;1.84;94.07
59767;BME280;46248;58.364;25.582;2023-04-05T07:59:32;101420.38;;;1.90;95.41
59767;BME280;46248;58.364;25.582;2023-04-05T08:02:54;101415.22;;;1.90;94.24
59767;BME280;46248;58.364;25.582;2023-04-05T08:06:20;101411.78;;;1.89;94.63
59767;BME280;46248;58.364;25.582;2023-04-05T08:09:43;101431.56;;;1.96;93.95
59767;BME280;46248;58.364;25.582;2023-04-05T08:13:05;101422.94;;;2.05;94.35
59767;BME280;46248;58.364;25.582;2023-04-05T08:16:28;101435.00;;;2.12;93.62
59767;BME280;46248;58.364;25.582;2023-04-05T08:19:50;101428.94;;;2.25;94.55
59767;BME280;46248;58.364;25.582;2023-04-05T08:23:12;101438.38;;;2.42;92.90
59767;BME280;46248;58.364;25.582;2023-04-05T08:26:34;101446.94;;;2.56;91.48
59767;BME280;46248;58.364;25.582;2023-04-05T08:29:56;101442.63;;;2.61;92.35
59767;BME280;46248;58.364;25.582;2023-04-05T08:33:19;101451.19;;;2.75;92.63
59767;BME280;46248;58.364;25.582;2023-04-05T08:36:41;101452.88;;;2.84;91.20
59767;BME280;46248;58.364;25.582;2023-04-05T08:40:03;101455.44;;;2.84;90.72
59767;BME280;46248;58.364;25.582;2023-04-05T08:43:33;101452.84;;;2.90;90.97
59767;BME280;46248;58.364;25.582;2023-04-05T08:47:02;101456.31;;;2.86;90.40
59767;BME280;46248;58.364;25.582;2023-04-05T08:50:25;101451.19;;;2.79;90.42
59767;BME280;46248;58.364;25.582;2023-04-05T08:53:47;101454.59;;;2.85;90.83
59767;BME280;46248;58.364;25.582;2023-04-05T08:57:10;101456.28;;;2.89;90.53
59767;BME280;46248;58.364;25.582;2023-04-05T09:00:32;101462.38;;;2.85;90.62
59767;BME280;46248;58.364;25.582;2023-04-05T09:03:56;101476.13;;;2.89;89.87
59767;BME280;46248;58.364;25.582;2023-04-05T09:07:20;101456.38;;;2.72;90.79
59767;BME280;46248;58.364;25.582;2023-04-05T09:10:42;101456.41;;;2.69;91.52
59767;BME280;46248;58.364;25.582;2023-04-05T09:14:05;101476.19;;;2.75;90.86
59767;BME280;46248;58.364;25.582;2023-04-05T09:17:27;101477.06;;;2.75;92.24
59767;BME280;46248;58.364;25.582;2023-04-05T09:20:55;101476.16;;;2.81;92.16
59767;BME280;46248;58.364;25.582;2023-04-05T09:24:29;101473.56;;;2.89;91.54
59767;BME280;46248;58.364;25.582;2023-04-05T09:27:54;101474.44;;;2.85;91.49
59767;BME280;46248;58.364;25.582;2023-04-05T09:31:32;101476.13;;;2.92;90.43
59767;BME280;46248;58.364;25.582;2023-04-05T09:34:57;101478.66;;;3.04;90.79
59767;BME280;46248;58.364;25.582;2023-04-05T09:38:41;101488.09;;;3.11;90.08
59767;BME280;46248;58.364;25.582;2023-04-05T09:42:06;101487.22;;;3.18;90.81
59767;BME280;46248;58.364;25.582;2023-04-05T09:45:29;101490.63;;;3.20;90.64
59767;BME280;46248;58.364;25.582;2023-04-05T09:48:59;101487.19;;;3.23;90.26
59767;BME280;46248;58.364;25.582;2023-04-05T09:52:24;101496.59;;;3.35;91.04
59767;BME280;46248;58.364;25.582;2023-04-05T09:55:46;101498.31;;;3.40;89.03
59767;BME280;46248;58.364;25.582;2023-04-05T09:59:11;101499.16;;;3.42;89.68
59767;BME280;46248;58.364;25.582;2023-04-05T10:02:36;101502.53;;;3.51;90.62
59767;BME280;46248;58.364;25.582;2023-04-05T10:05:59;101476.78;;;3.31;88.90
59767;BME280;46248;58.364;25.582;2023-04-05T10:09:21;101508.69;;;3.39;89.34
59767;BME280;46248;58.364;25.582;2023-04-05T10:12:44;101513.81;;;3.48;88.76
59767;BME280;46248;58.364;25.582;2023-04-05T10:16:12;101518.13;;;3.44;88.42
59767;BME280;46248;58.364;25.582;2023-04-05T10:19:44;101515.59;;;3.37;88.34
59767;BME280;46248;58.364;25.582;2023-04-05T10:23:12;101519.03;;;3.42;89.31
59767;BME280;46248;58.364;25.582;2023-04-05T10:26:44;101518.09;;;3.49;89.13
59767;BME280;46248;58.364;25.582;2023-04-05T10:30:07;101500.88;;;3.45;89.31
59767;BME280;46248;58.364;25.582;2023-04-05T10:33:36;101493.13;;;3.45;89.01
59767;BME280;46248;58.364;25.582;2023-04-05T10:37:02;101523.13;;;3.72;89.28
59767;BME280;46248;58.364;25.582;2023-04-05T10:40:26;101512.75;;;3.77;87.99
59767;BME280;46248;58.364;25.582;2023-04-05T10:43:50;101519.53;;;3.92;87.90
59767;BME280;46248;58.364;25.582;2023-04-05T10:47:18;101526.47;;;3.88;87.82
59767;BME280;46248;58.364;25.582;2023-04-05T10:50:42;101523.88;;;3.88;88.31
59767;BME280;46248;58.364;25.582;2023-04-05T10:54:06;101516.22;;;3.76;87.96
59767;BME280;46248;58.364;25.582;2023-04-05T10:57:30;101528.28;;;3.78;88.33
59767;BME280;46248;58.364;25.582;2023-04-05T11:00:53;101536.09;;;3.71;86.68
59767;BME280;46248;58.364;25.582;2023-04-05T11:04:16;101546.47;;;3.63;88.55
59767;BME280;46248;58.364;25.582;2023-04-05T11:07:43;101543.97;;;3.52;88.68
59767;BME280;46248;58.364;25.582;2023-04-05T11:11:06;101556.94;;;3.49;89.75
59767;BME280;46248;58.364;25.582;2023-04-05T11:18:07;101550.09;;;3.42;89.22
59767;BME280;46248;58.364;25.582;2023-04-05T11:21:30;101555.25;;;3.42;89.46
59767;BME280;46248;58.364;25.582;2023-04-05T11:24:54;101559.56;;;3.46;89.89
59767;BME280;46248;58.364;25.582;2023-04-05T11:28:22;101554.41;;;3.40;89.64
59767;BME280;46248;58.364;25.582;2023-04-05T11:31:57;101563.06;;;3.31;90.02
59767;BME280;46248;58.364;25.582;2023-04-05T11:35:19;101562.19;;;3.35;90.80
59767;BME280;46248;58.364;25.582;2023-04-05T11:38:43;101559.56;;;3.38;90.13
59767;BME280;46248;58.364;25.582;2023-04-05T11:42:09;101562.19;;;3.37;90.00
59767;BME280;46248;58.364;25.582;2023-04-05T11:45:33;101555.34;;;3.25;89.96
59767;BME280;46248;58.364;25.582;2023-04-05T11:48:55;101552.78;;;3.14;90.73
59767;BME280;46248;58.364;25.582;2023-04-05T11:52:18;101561.41;;;3.21;91.59
59767;BME280;46248;58.364;25.582;2023-04-05T11:55:42;101567.41;;;3.31;91.32
59767;BME280;46248;58.364;25.582;2023-04-05T11:59:05;101570.81;;;3.34;91.75
59767;BME280;46248;58.364;25.582;2023-04-05T12:02:27;101569.97;;;3.31;90.00
59767;BME280;46248;58.364;25.582;2023-04-05T12:05:56;101570.00;;;3.20;89.76
59767;BME280;46248;58.364;25.582;2023-04-05T12:09:19;101570.88;;;3.20;90.29
59767;BME280;46248;58.364;25.582;2023-04-05T12:12:41;101578.59;;;3.27;91.01
59767;BME280;46248;58.364;25.582;2023-04-05T12:16:07;101568.25;;;3.28;90.45
59767;BME280;46248;58.364;25.582;2023-04-05T12:19:29;101579.47;;;3.30;90.14
59767;BME280;46248;58.364;25.582;2023-04-05T12:22:53;101567.41;;;3.26;91.20
59767;BME280;46248;58.364;25.582;2023-04-05T12:26:16;101574.25;;;3.38;91.41
59767;BME280;46248;58.364;25.582;2023-04-05T12:29:38;101572.47;;;3.48;91.64
59767;BME280;46248;58.364;25.582;2023-04-05T12:33:06;101573.31;;;3.53;91.10
59767;BME280;46248;58.364;25.582;2023-04-05T12:36:31;101575.03;;;3.55;90.35
59767;BME280;46248;58.364;25.582;2023-04-05T12:39:53;101569.03;;;3.49;90.34
59767;BME280;46248;58.364;25.582;2023-04-05T12:43:16;101576.81;;;3.46;90.63
59767;BME280;46248;58.364;25.582;2023-04-05T12:46:40;101573.41;;;3.34;91.21
59767;BME280;46248;58.364;25.582;2023-04-05T12:50:11;101575.16;;;3.28;91.14
59767;BME280;46248;58.364;25.582;2023-04-05T12:53:33;101571.69;;;3.32;91.24
59767;BME280;46248;58.364;25.582;2023-04-05T12:56:55;101564.75;;;3.38;91.42
59767;BME280;46248;58.364;25.582;2023-04-05T13:00:18;101558.75;;;3.29;91.48
59767;BME280;46248;58.364;25.582;2023-04-05T13:03:44;101561.31;;;3.42;91.66
59767;BME280;46248;58.364;25.582;2023-04-05T13:07:10;101556.94;;;3.52;90.25
59767;BME280;46248;58.364;25.582;2023-04-05T13:10:32;101558.66;;;3.47;89.85
59767;BME280;46248;58.364;25.582;2023-04-05T13:13:54;101555.25;;;3.45;90.60
59767;BME280;46248;58.364;25.582;2023-04-05T13:17:16;101551.81;;;3.40;90.08
59767;BME280;46248;58.364;25.582;2023-04-05T13:20:37;101549.25;;;3.29;90.42
59767;BME280;46248;58.364;25.582;2023-04-05T13:24:01;101557.03;;;3.26;90.98
59767;BME280;46248;58.364;25.582;2023-04-05T13:27:23;101565.69;;;3.20;91.21
59767;BME280;46248;58.364;25.582;2023-04-05T13:30:45;101567.44;;;3.18;91.49
59767;BME280;46248;58.364;25.582;2023-04-05T13:34:09;101561.44;;;3.10;91.68
59767;BME280;46248;58.364;25.582;2023-04-05T13:37:31;101558.00;;;3.05;91.39
59767;BME280;46248;58.364;25.582;2023-04-05T13:40:54;101562.31;;;3.02;92.09
59767;BME280;46248;58.364;25.582;2023-04-05T13:44:16;101548.56;;;2.86;92.53
59767;BME280;46248;58.364;25.582;2023-04-05T13:47:38;101578.75;;;2.94;91.70
59767;BME280;46248;58.364;25.582;2023-04-05T13:51:00;101573.59;;;2.85;92.07
59767;BME280;46248;58.364;25.582;2023-04-05T13:54:22;101581.34;;;2.88;91.93
59767;BME280;46248;58.364;25.582;2023-04-05T13:57:46;101590.81;;;2.83;91.61
59767;BME280;46248;58.364;25.582;2023-04-05T14:01:08;101589.13;;;2.74;92.32
59767;BME280;46248;58.364;25.582;2023-04-05T14:04:30;101596.03;;;2.72;93.42
59767;BME280;46248;58.364;25.582;2023-04-05T14:07:53;101602.06;;;2.71;92.93
59767;BME280;46248;58.364;25.582;2023-04-05T14:11:15;101599.47;;;2.73;92.96
59767;BME280;46248;58.364;25.582;2023-04-05T14:14:38;101601.22;;;2.75;93.14
59767;BME280;46248;58.364;25.582;2023-04-05T14:18:00;101595.16;;;2.77;93.48
59767;BME280;46248;58.364;25.582;2023-04-05T14:21:25;101608.06;;;2.78;93.26
59767;BME280;46248;58.364;25.582;2023-04-05T14:24:49;101603.78;;;2.75;93.30
59767;BME280;46248;58.364;25.582;2023-04-05T14:28:11;101609.81;;;2.79;93.83
59767;BME280;46248;58.364;25.582;2023-04-05T14:31:35;101598.63;;;2.75;93.52
59767;BME280;46248;58.364;25.582;2023-04-05T14:34:57;101600.34;;;2.73;94.01
59767;BME280;46248;58.364;25.582;2023-04-05T14:38:19;101602.94;;;2.64;94.01
59767;BME280;46248;58.364;25.582;2023-04-05T14:41:41;101600.34;;;2.63;93.63
59767;BME280;46248;58.364;25.582;2023-04-05T14:45:04;101596.91;;;2.62;94.47
59767;BME280;46248;58.364;25.582;2023-04-05T14:48:27;101601.22;;;2.66;94.63
59767;BME280;46248;58.364;25.582;2023-04-05T14:51:51;101602.91;;;2.66;94.54
59767;BME280;46248;58.364;25.582;2023-04-05T14:55:13;101609.81;;;2.68;94.10
59767;BME280;46248;58.364;25.582;2023-04-05T14:58:35;101611.53;;;2.60;94.37
59767;BME280;46248;58.364;25.582;2023-04-05T15:01:57;101622.75;;;2.50;94.43
59767;BME280;46248;58.364;25.582;2023-04-05T15:05:21;101619.31;;;2.40;95.53
59767;BME280;46248;58.364;25.582;2023-04-05T15:08:43;101621.06;;;2.40;95.83
59767;BME280;46248;58.364;25.582;2023-04-05T15:12:05;101619.31;;;2.42;95.33
59767;BME280;46248;58.364;25.582;2023-04-05T15:15:27;101619.31;;;2.39;95.74
59767;BME280;46248;58.364;25.582;2023-04-05T15:18:49;101618.47;;;2.37;95.54
59767;BME280;46248;58.364;25.582;2023-04-05T15:22:16;101627.06;;;2.37;95.76
59767;BME280;46248;58.364;25.582;2023-04-05T15:25:40;101623.63;;;2.37;95.93
59767;BME280;46248;58.364;25.582;2023-04-05T15:29:02;101625.38;;;2.36;94.93
59767;BME280;46248;58.364;25.582;2023-04-05T15:32:24;101624.47;;;2.33;95.13
59767;BME280;46248;58.364;25.582;2023-04-05T15:35:46;101622.78;;;2.27;95.23
59767;BME280;46248;58.364;25.582;2023-04-05T15:39:09;101627.91;;;2.24;95.43
59767;BME280;46248;58.364;25.582;2023-04-05T15:42:32;101637.38;;;2.20;95.83
59767;BME280;46248;58.364;25.582;2023-04-05T15:45:55;101639.13;;;2.21;95.05
59767;BME280;46248;58.364;25.582;2023-04-05T15:49:16;101631.38;;;2.18;95.45
59767;BME280;46248;58.364;25.582;2023-04-05T15:52:38;101637.41;;;2.16;96.35
59767;BME280;46248;58.364;25.582;2023-04-05T15:56:02;101640.84;;;2.13;96.94
59767;BME280;46248;58.364;25.582;2023-04-05T15:59:24;101650.31;;;2.13;97.05
59767;BME280;46248;58.364;25.582;2023-04-05T16:02:45;101653.72;;;2.12;97.24
59767;BME280;46248;58.364;25.582;2023-04-05T16:06:08;101648.59;;;2.10;97.19
59767;BME280;46248;58.364;25.582;2023-04-05T16:09:30;101647.72;;;2.08;98.30
59767;BME280;46248;58.364;25.582;2023-04-05T16:12:54;101644.28;;;2.11;97.48
59767;BME280;46248;58.364;25.582;2023-04-05T16:16:16;101646.88;;;2.12;97.46
59767;BME280;46248;58.364;25.582;2023-04-05T16:19:57;101651.16;;;2.12;98.04
59767;BME280;46248;58.364;25.582;2023-04-05T16:23:19;101647.72;;;2.08;97.94
59767;BME280;46248;58.364;25.582;2023-04-05T16:26:41;101647.72;;;2.08;97.55
59767;BME280;46248;58.364;25.582;2023-04-05T16:30:07;101641.69;;;2.09;97.73
59767;BME280;46248;58.364;25.582;2023-04-05T16:33:30;101653.75;;;2.10;98.14
59767;BME280;46248;58.364;25.582;2023-04-05T16:36:52;101652.88;;;2.03;97.88
59767;BME280;46248;58.364;25.582;2023-04-05T16:40:14;101650.28;;;2.02;98.31
59767;BME280;46248;58.364;25.582;2023-04-05T16:43:36;101655.44;;;1.99;98.74
59767;BME280;46248;58.364;25.582;2023-04-05T16:47:00;101658.03;;;1.94;98.51
59767;BME280;46248;58.364;25.582;2023-04-05T16:50:22;101658.88;;;1.89;99.08
59767;BME280;46248;58.364;25.582;2023-04-05T16:53:44;101660.56;;;1.83;99.80
59767;BME280;46248;58.364;25.582;2023-04-05T16:57:05;101663.16;;;1.79;99.82
59767;BME280;46248;58.364;25.582;2023-04-05T17:00:28;101668.28;;;1.77;99.83
59767;BME280;46248;58.364;25.582;2023-04-05T17:03:51;101664.81;;;1.72;100.00
59767;BME280;46248;58.364;25.582;2023-04-05T17:07:13;101669.97;;;1.66;100.00
59767;BME280;46248;58.364;25.582;2023-04-05T17:10:35;101676.00;;;1.64;100.00
59767;BME280;46248;58.364;25.582;2023-04-05T17:13:57;101669.94;;;1.60;100.00
59767;BME280;46248;58.364;25.582;2023-04-05T17:17:20;101684.59;;;1.61;100.00
59767;BME280;46248;58.364;25.582;2023-04-05T17:20:43;101671.69;;;1.58;100.00
59767;BME280;46248;58.364;25.582;2023-04-05T17:24:05;101671.66;;;1.52;100.00
59767;BME280;46248;58.364;25.582;2023-04-05T17:27:28;101686.28;;;1.56;100.00
59767;BME280;46248;58.364;25.582;2023-04-05T17:30:50;101684.53;;;1.53;100.00
59767;BME280;46248;58.364;25.582;2023-04-05T17:34:12;101688.88;;;1.54;100.00
59767;BME280;46248;58.364;25.582;2023-04-05T17:37:37;101690.56;;;1.52;100.00
59767;BME280;46248;58.364;25.582;2023-04-05T17:40:59;101692.31;;;1.52;100.00